Time;durP1;ratioP1;P1;durP2;ratioP2;P2;SDS_P1;SDS_P2;PMS_P1;PMS_P2;Temp;Humidity;BMP_temperature;BMP_pressure;BME280_temperature;BME280_humidity;BME280_pressure;Samples;Min_cycle;Max_cycle;Signal;HPM_P1;HPM_P2
2023/12/06 00:00:28;;;;;;;1.77;1.67;;;;;;;5.13;nan;-23326.44;5033820;28;20265;-65
2023/12/06 00:02:53;;;;;;;1.93;1.83;;;;;;;1.18;nan;-23219.00;5033483;28;20198;-64
2023/12/06 00:05:19;;;;;;;2.07;1.93;;;;;;;4.79;nan;-23317.25;5033668;28;20221;-64
2023/12/06 00:07:44;;;;;;;2.53;1.97;;;;;;;4.82;nan;-23317.94;5033654;28;20262;-63
2023/12/06 00:10:10;;;;;;;2.80;2.20;;;;;;;5.27;nan;-23330.28;5033181;28;20256;-63
2023/12/06 00:12:35;;;;;;;3.97;2.40;;;;;;;5.19;nan;-23012.03;5031723;28;20175;-63
2023/12/06 00:15:01;;;;;;;5.53;3.67;;;;;;;5.12;nan;-23326.16;5033373;28;20179;-64
2023/12/06 00:17:26;;;;;;;2.00;1.90;;;;;;;5.29;nan;-23330.81;5033431;28;20171;-62
2023/12/06 00:19:51;;;;;;;1.60;1.50;;;;;;;5.23;nan;-23329.19;5033383;28;20250;-64
2023/12/06 00:22:17;;;;;;;3.40;2.43;;;;;;;5.04;nan;-23008.00;5033041;28;20605;-64
2023/12/06 00:24:42;;;;;;;2.33;2.17;;;;;;;5.00;nan;-23322.72;5033601;28;20360;-64
2023/12/06 00:27:07;;;;;;;2.33;2.10;;;;;;;5.19;nan;-23328.09;5032934;28;20730;-63
2023/12/06 00:29:33;;;;;;;2.10;1.90;;;;;;;4.93;nan;-23320.97;5033400;28;20298;-63
2023/12/06 00:31:58;;;;;;;2.10;1.90;;;;;;;4.86;nan;-23319.16;5031808;28;20168;-64
2023/12/06 00:34:23;;;;;;;2.20;2.00;;;;;;;0.85;nan;-23210.03;5033044;28;20172;-62
2023/12/06 00:36:49;;;;;;;2.87;2.60;;;;;;;4.86;nan;-23319.03;5032879;28;20639;-64
2023/12/06 00:39:14;;;;;;;5.00;3.10;;;;;;;4.47;nan;-23308.34;5033327;28;20168;-63
2023/12/06 00:41:41;;;;;;;3.87;2.93;;;;;;;5.08;nan;-23325.06;5032385;28;20543;-64
2023/12/06 00:44:07;;;;;;;2.17;2.03;;;;;;;5.11;nan;-23325.88;5031111;28;20266;-63
2023/12/06 00:46:33;;;;;;;3.57;3.27;;;;;;;4.91;nan;-23320.41;5032455;28;20175;-64
2023/12/06 00:48:59;;;;;;;10.03;3.70;;;;;;;5.19;nan;-23327.94;5032631;28;20198;-64
2023/12/06 00:51:25;;;;;;;13.53;2.37;;;;;;;5.10;nan;-23325.47;5032382;28;20203;-64
2023/12/06 00:53:50;;;;;;;2.47;2.27;;;;;;;4.88;nan;-23319.59;5032605;28;20167;-63
2023/12/06 00:56:16;;;;;;;2.53;2.33;;;;;;;4.97;nan;-23322.06;5032285;28;20255;-63
2023/12/06 00:58:44;;;;;;;1.80;1.70;;;;;;;5.14;nan;-23326.72;5032396;28;20172;-63
2023/12/06 01:01:13;;;;;;;2.97;2.73;;;;;;;5.20;nan;-23328.34;5032649;28;20202;-64
2023/12/06 01:03:40;;;;;;;2.43;2.17;;;;;;;4.98;nan;-23322.31;5032469;28;20202;-64
2023/12/06 01:06:06;;;;;;;2.40;1.93;;;;;;;5.05;nan;-23324.09;5032289;28;20620;-63
2023/12/06 01:08:31;;;;;;;1.93;1.83;;;;;;;5.32;nan;-23331.63;5032053;28;20203;-64
2023/12/06 01:10:56;;;;;;;4.83;2.97;;;;;;;5.32;nan;-23331.63;5031863;28;20195;-64
2023/12/06 01:13:22;;;;;;;2.10;2.00;;;;;;;5.22;nan;-23328.91;5032078;28;20171;-64
2023/12/06 01:15:47;;;;;;;3.47;2.33;;;;;;;5.38;nan;-23333.16;5032499;28;20259;-63
2023/12/06 01:18:13;;;;;;;2.10;1.80;;;;;;;5.19;nan;-23328.09;5032278;28;20160;-63
2023/12/06 01:20:39;;;;;;;4.50;2.07;;;;;;;5.32;nan;-23331.63;5031812;28;20175;-63
2023/12/06 01:23:05;;;;;;;2.63;2.40;;;;;;;5.23;nan;-23329.19;5031687;28;20203;-66
2023/12/06 01:25:31;;;;;;;4.23;2.93;;;;;;;5.38;nan;-23017.00;5031543;28;20535;-63
2023/12/06 01:27:57;;;;;;;2.57;2.33;;;;;;;5.24;nan;-23013.50;5032115;28;20740;-63
2023/12/06 01:30:22;;;;;;;2.63;2.43;;;;;;;5.41;nan;-23017.94;5031625;28;20310;-64
2023/12/06 01:32:48;;;;;;;5.63;2.77;;;;;;;5.32;nan;-23015.53;5031868;28;20180;-64
2023/12/06 01:35:13;;;;;;;2.80;2.57;;;;;;;5.29;nan;-23014.84;5031736;28;20175;-63
2023/12/06 01:37:39;;;;;;;2.97;2.63;;;;;;;5.52;nan;-23020.75;5031615;28;20199;-63
2023/12/06 01:40:06;;;;;;;2.57;2.37;;;;;;;5.39;nan;-23017.28;5031587;28;20172;-64
2023/12/06 01:42:31;;;;;;;5.80;2.23;;;;;;;5.36;nan;-23016.59;5031600;28;20646;-63
2023/12/06 01:44:57;;;;;;;3.67;2.10;;;;;;;5.42;nan;-23018.06;5031760;28;20312;-65
2023/12/06 01:47:25;;;;;;;3.33;3.03;;;;;;;5.34;nan;-23016.19;5030237;28;20179;-64
2023/12/06 01:49:52;;;;;;;2.67;2.30;;;;;;;5.39;nan;-23017.28;5031269;28;20180;-63
2023/12/06 01:52:17;;;;;;;5.53;2.33;;;;;;;5.30;nan;-23015.13;5031261;28;20194;-65
2023/12/06 01:54:43;;;;;;;1.70;1.60;;;;;;;5.32;nan;-23015.53;5031764;28;20599;-64
2023/12/06 01:57:09;;;;;;;1.60;1.50;;;;;;;5.25;nan;-23013.78;5031306;28;20189;-64
2023/12/06 01:59:36;;;;;;;2.63;2.43;;;;;;;5.22;nan;-23012.84;5031645;28;20269;-64
2023/12/06 02:02:01;;;;;;;3.20;2.23;;;;;;;5.27;nan;-23014.19;5029572;28;20171;-63
2023/12/06 02:04:27;;;;;;;4.23;2.53;;;;;;;5.30;nan;-22699.13;5031328;28;20182;-64
2023/12/06 02:06:52;;;;;;;2.60;2.40;;;;;;;5.18;nan;-23011.75;5031409;28;20194;-63
2023/12/06 02:09:18;;;;;;;3.53;2.93;;;;;;;5.36;nan;-23016.59;5031267;28;20206;-64
2023/12/06 02:11:43;;;;;;;2.77;2.43;;;;;;;5.29;nan;-23014.72;5031176;28;20253;-63
2023/12/06 02:14:09;;;;;;;2.13;1.97;;;;;;;5.31;nan;-23015.38;5031023;28;20190;-64
2023/12/06 02:16:34;;;;;;;4.53;2.40;;;;;;;5.45;nan;-23018.88;5031466;28;20205;-64
2023/12/06 02:19:01;;;;;;;1.73;1.63;;;;;;;5.27;nan;-23014.31;5031105;28;20179;-64
2023/12/06 02:21:27;;;;;;;1.73;1.63;;;;;;;5.27;nan;-23330.13;5030752;28;20179;-63
2023/12/06 02:23:55;;;;;;;16.87;2.83;;;;;;;5.41;nan;-23333.97;5030798;28;20270;-63
2023/12/06 02:26:21;;;;;;;6.90;3.07;;;;;;;5.43;nan;-23334.38;5030961;28;20207;-64
2023/12/06 02:28:53;;;;;;;3.77;2.60;;;;;;;5.19;nan;-23328.09;5030102;28;20221;-65
2023/12/06 02:31:18;;;;;;;2.40;2.03;;;;;;;5.17;nan;-23327.53;5030817;28;20227;-63
2023/12/06 02:33:44;;;;;;;2.70;2.50;;;;;;;5.40;nan;-23333.56;5030785;28;20622;-64
2023/12/06 02:36:12;;;;;;;6.20;2.87;;;;;;;5.16;nan;-23327.25;5030890;28;20168;-64
2023/12/06 02:38:38;;;;;;;2.03;1.93;;;;;;;5.40;nan;-23333.56;5030531;28;20179;-63
2023/12/06 02:41:06;;;;;;;2.40;2.20;;;;;;;5.28;nan;-23330.53;5030744;28;20167;-64
2023/12/06 02:43:31;;;;;;;3.27;2.03;;;;;;;5.17;nan;-23643.41;5030842;28;20171;-63
2023/12/06 02:45:56;;;;;;;3.37;2.97;;;;;;;5.09;nan;-23641.03;5031011;28;20194;-63
2023/12/06 02:48:22;;;;;;;2.67;2.47;;;;;;;5.32;nan;-23647.44;5030738;28;20222;-64
2023/12/06 02:50:47;;;;;;;2.40;2.20;;;;;;;5.02;nan;-23639.22;5030343;28;20199;-63
2023/12/06 02:53:13;;;;;;;2.73;2.40;;;;;;;5.29;nan;-23646.63;5030731;28;20214;-63
2023/12/06 02:55:38;;;;;;;2.40;2.20;;;;;;;5.27;nan;-23646.19;5030549;28;20608;-65
2023/12/06 02:58:03;;;;;;;2.40;2.20;;;;;;;5.27;nan;-23646.19;5030428;28;20246;-64
2023/12/06 03:00:29;;;;;;;6.40;2.90;;;;;;;5.31;nan;-23647.31;5030662;28;20179;-64
2023/12/06 03:02:54;;;;;;;3.23;2.93;;;;;;;5.10;nan;-23641.44;5030470;28;20195;-63
2023/12/06 03:05:19;;;;;;;2.00;1.83;;;;;;;4.96;nan;-23637.41;5030522;28;20199;-64
2023/12/06 03:07:45;;;;;;;2.47;2.27;;;;;;;5.05;nan;-23639.91;5030621;28;20179;-63
2023/12/06 03:10:10;;;;;;;4.47;2.30;;;;;;;5.22;nan;-23960.69;5030681;28;20202;-63
2023/12/06 03:12:36;;;;;;;2.73;2.50;;;;;;;5.21;nan;-23960.25;5031887;28;20179;-64
2023/12/06 03:15:01;;;;;;;4.83;3.13;;;;;;;5.22;nan;-23960.69;5034242;28;20314;-64
2023/12/06 03:17:26;;;;;;;3.70;3.40;;;;;;;4.93;nan;-23952.44;5034353;28;20171;-65
2023/12/06 03:19:52;;;;;;;10.73;2.70;;;;;;;5.04;nan;-23955.41;5034342;28;20179;-64
2023/12/06 03:22:17;;;;;;;2.13;2.00;;;;;;;4.97;nan;-23953.56;5033953;28;20183;-64
2023/12/06 03:24:42;;;;;;;2.03;1.93;;;;;;;5.24;nan;-23961.09;5034275;28;20189;-63
2023/12/06 03:27:08;;;;;;;3.10;2.53;;;;;;;5.00;nan;-23954.41;5034093;28;20566;-62
2023/12/06 03:29:33;;;;;;;3.20;2.93;;;;;;;5.12;nan;-23957.84;5034172;28;20226;-63
2023/12/06 03:31:58;;;;;;;2.20;2.00;;;;;;;5.13;nan;-23958.13;5034036;28;20305;-64
2023/12/06 03:34:24;;;;;;;5.37;2.23;;;;;;;4.90;nan;-23951.56;5033813;28;20176;-63
2023/12/06 03:36:49;;;;;;;3.17;2.87;;;;;;;5.17;nan;-23959.25;5033983;28;20179;-64
2023/12/06 03:39:16;;;;;;;3.00;2.80;;;;;;;5.20;nan;-23959.97;5033810;28;20254;-63
2023/12/06 03:41:42;;;;;;;3.57;2.70;;;;;;;5.17;nan;-23959.25;5034071;28;20270;-63
2023/12/06 03:44:08;;;;;;;3.37;2.60;;;;;;;5.13;nan;-23958.13;5033895;28;20194;-63
2023/12/06 03:46:33;;;;;;;2.63;2.13;;;;;;;5.14;nan;-23958.41;5033638;28;20175;-63
2023/12/06 03:49:00;;;;;;;3.70;2.40;;;;;;;5.12;nan;-23959.69;5033703;28;20176;-63
2023/12/06 03:51:25;;;;;;;1.80;1.70;;;;;;;4.96;nan;-23955.00;5033551;28;20217;-64
2023/12/06 03:53:51;;;;;;;2.30;2.10;;;;;;;5.07;nan;-23958.25;5033600;28;20605;-64
2023/12/06 03:56:16;;;;;;;1.73;1.63;;;;;;;4.96;nan;-23955.13;5033860;28;20270;-64
2023/12/06 03:58:42;;;;;;;2.30;1.80;;;;;;;5.15;nan;-23960.53;5033535;28;20646;-64
2023/12/06 04:01:07;;;;;;;1.93;1.83;;;;;;;5.00;nan;-23956.25;5033353;28;20199;-64
2023/12/06 04:03:33;;;;;;;2.20;2.10;;;;;;;4.94;nan;-23954.41;5032105;28;20266;-63
2023/12/06 04:05:59;;;;;;;2.60;2.40;;;;;;;4.93;nan;-23954.13;5033229;28;20242;-63
2023/12/06 04:08:24;;;;;;;2.77;2.03;;;;;;;4.95;nan;-23954.72;5033837;28;20172;-62
2023/12/06 04:10:49;;;;;;;7.63;3.13;;;;;;;5.16;nan;-23960.81;5033701;28;20202;-64
2023/12/06 04:13:15;;;;;;;3.20;2.87;;;;;;;5.06;nan;-23957.97;5033220;28;20175;-62
2023/12/06 04:15:40;;;;;;;2.70;2.17;;;;;;;5.10;nan;-23958.97;5033124;28;20172;-64
2023/12/06 04:18:06;;;;;;;2.97;2.77;;;;;;;5.12;nan;-23959.69;5033585;28;20167;-65
2023/12/06 04:20:31;;;;;;;4.90;3.37;;;;;;;4.85;nan;-23952.00;5032076;28;20178;-64
2023/12/06 04:22:57;;;;;;;2.50;2.30;;;;;;;5.00;nan;-23956.25;5032854;28;20255;-64
2023/12/06 04:25:22;;;;;;;1.97;1.87;;;;;;;4.84;nan;-23951.72;5032973;28;20650;-64
2023/12/06 04:27:47;;;;;;;2.17;2.07;;;;;;;4.93;nan;-23954.13;5032858;28;20203;-63
2023/12/06 04:30:14;;;;;;;3.07;2.80;;;;;;;5.02;nan;-23956.84;5033051;28;20277;-63
2023/12/06 04:32:40;;;;;;;2.40;2.23;;;;;;;4.98;nan;-23955.56;5032760;28;20229;-64
2023/12/06 04:35:06;;;;;;;2.70;2.23;;;;;;;5.02;nan;-23956.84;5032634;28;20183;-65
2023/12/06 04:37:31;;;;;;;5.97;2.87;;;;;;;4.86;nan;-23952.28;5033238;28;20191;-64
2023/12/06 04:39:57;;;;;;;3.33;3.03;;;;;;;5.10;nan;-23959.13;5032471;28;20234;-64
2023/12/06 04:42:22;;;;;;;2.80;2.50;;;;;;;5.09;nan;-23958.81;5032861;28;20179;-63
2023/12/06 04:44:48;;;;;;;1.90;1.80;;;;;;;5.04;nan;-23957.41;5031273;28;20179;-62
2023/12/06 04:47:13;;;;;;;2.10;2.00;;;;;;;5.09;nan;-23958.69;5032816;28;20171;-64
2023/12/06 04:49:39;;;;;;;2.73;2.53;;;;;;;4.87;nan;-23952.72;5032335;28;20171;-64
2023/12/06 04:52:04;;;;;;;2.07;1.97;;;;;;;5.01;nan;-23956.56;5032937;28;20685;-64
2023/12/06 04:54:30;;;;;;;6.13;4.10;;;;;;;4.84;nan;-23951.84;5032543;28;20194;-63
2023/12/06 04:56:55;;;;;;;2.27;2.17;;;;;;;5.05;nan;-23957.69;5032545;28;20186;-64
2023/12/06 04:59:20;;;;;;;2.93;2.73;;;;;;;4.78;nan;-23950.00;5032444;28;20669;-63
2023/12/06 05:01:46;;;;;;;2.40;2.10;;;;;;;4.85;nan;-23952.00;5031620;28;20219;-63
2023/12/06 05:04:11;;;;;;;2.27;1.83;;;;;;;5.03;nan;-23957.13;5031817;28;20218;-65
2023/12/06 05:06:37;;;;;;;2.70;2.40;;;;;;;4.86;nan;-23952.28;5032423;28;20217;-64
2023/12/06 05:09:07;;;;;;;4.20;2.67;;;;;;;5.09;nan;-23958.81;5032514;28;20249;-63
2023/12/06 05:11:32;;;;;;;3.63;2.63;;;;;;;4.95;nan;-23954.84;5031942;28;20203;-64
2023/12/06 05:13:58;;;;;;;3.93;2.73;;;;;;;5.12;nan;-23959.69;5031637;28;20190;-63
2023/12/06 05:16:24;;;;;;;2.03;1.93;;;;;;;5.09;nan;-23958.81;5031789;28;20179;-63
2023/12/06 05:18:50;;;;;;;3.40;3.10;;;;;;;5.10;nan;-23959.13;5031843;28;20274;-65
2023/12/06 05:21:15;;;;;;;3.40;3.07;;;;;;;4.95;nan;-23954.84;5031872;28;20254;-66
2023/12/06 05:23:40;;;;;;;2.17;2.03;;;;;;;5.15;nan;-23960.41;5031882;28;20267;-65
2023/12/06 05:26:06;;;;;;;2.40;2.27;;;;;;;4.94;nan;-23954.56;5031644;28;20194;-64
2023/12/06 05:28:31;;;;;;;4.53;2.47;;;;;;;4.94;nan;-23954.41;5031533;28;20176;-64
2023/12/06 05:30:57;;;;;;;2.83;2.63;;;;;;;4.95;nan;-23954.72;5031260;28;20266;-64
2023/12/06 05:33:22;;;;;;;8.50;2.97;;;;;;;5.12;nan;-23959.53;5031496;28;20186;-65
2023/12/06 05:35:47;;;;;;;2.03;1.93;;;;;;;4.95;nan;-23954.84;5030395;28;20233;-64
2023/12/06 05:38:13;;;;;;;4.07;2.23;;;;;;;4.94;nan;-23954.41;5030949;28;20598;-64
2023/12/06 05:40:38;;;;;;;2.53;2.33;;;;;;;4.86;nan;-23952.28;5031867;28;20187;-65
2023/12/06 05:43:04;;;;;;;2.13;2.03;;;;;;;4.91;nan;-23953.72;5031573;28;20674;-63
2023/12/06 05:45:29;;;;;;;3.97;2.63;;;;;;;4.93;nan;-23954.13;5031848;28;20172;-63
2023/12/06 05:47:55;;;;;;;2.07;1.97;;;;;;;4.97;nan;-23955.41;5031652;28;20183;-64
2023/12/06 05:50:21;;;;;;;3.90;3.23;;;;;;;5.14;nan;-23960.25;5031402;28;20199;-63
2023/12/06 05:52:46;;;;;;;2.37;2.17;;;;;;;4.58;nan;-23944.31;5025852;28;20168;-65
2023/12/06 05:55:12;;;;;;;2.63;2.43;;;;;;;5.25;nan;-23963.38;5020738;28;20574;-64
2023/12/06 05:57:37;;;;;;;4.07;3.67;;;;;;;5.02;nan;-23956.84;5020332;28;20191;-63
2023/12/06 06:00:05;;;;;;;1.80;1.70;;;;;;;5.17;nan;-23960.97;5020987;28;20214;-64
2023/12/06 06:02:31;;;;;;;2.43;2.23;;;;;;;5.21;nan;-23962.09;5027596;28;20182;-63
2023/12/06 06:04:56;;;;;;;2.97;2.67;;;;;;;5.19;nan;-23961.66;5031718;28;20167;-65
2023/12/06 06:07:22;;;;;;;5.03;2.90;;;;;;;5.02;nan;-23956.84;5031623;28;20167;-64
2023/12/06 06:09:47;;;;;;;3.57;2.83;;;;;;;5.15;nan;-23960.41;5015631;28;20634;-64
2023/12/06 06:12:12;;;;;;;3.47;2.87;;;;;;;4.96;nan;-23955.00;5011408;28;20176;-63
2023/12/06 06:14:38;;;;;;;2.17;2.03;;;;;;;5.02;nan;-23956.69;5018592;28;20186;-63
2023/12/06 06:17:03;;;;;;;2.87;2.67;;;;;;;4.98;nan;-23955.69;5029702;28;20175;-63
2023/12/06 06:19:29;;;;;;;2.67;2.47;;;;;;;5.21;nan;-23962.09;5030141;28;20183;-63
2023/12/06 06:21:54;;;;;;;1.90;1.80;;;;;;;5.04;nan;-23957.41;5030444;28;20187;-64
2023/12/06 06:24:20;;;;;;;4.13;2.60;;;;;;;4.72;nan;-23948.31;5030493;28;20167;-63
2023/12/06 06:26:46;;;;;;;3.70;3.43;;;;;;;5.24;nan;-23962.94;5030507;28;20167;-62
2023/12/06 06:29:12;;;;;;;3.27;2.50;;;;;;;4.22;nan;-23934.34;5030407;28;20168;-63
2023/12/06 06:31:37;;;;;;;1.87;1.77;;;;;;;5.15;nan;-23960.41;5030025;28;20297;-62
2023/12/06 06:34:03;;;;;;;2.43;2.27;;;;;;;5.29;nan;-23964.50;5030634;28;20178;-63
2023/12/06 06:36:29;;;;;;;1.97;1.87;;;;;;;5.47;nan;-23969.34;5030490;28;20176;-65
2023/12/06 06:38:57;;;;;;;3.60;2.77;;;;;;;5.51;nan;-23970.63;5030757;28;20232;-63
2023/12/06 06:41:27;;;;;;;7.93;3.57;;;;;;;5.59;nan;-23972.91;5030631;28;20218;-64
2023/12/06 06:43:52;;;;;;;1.80;1.70;;;;;;;5.57;nan;-23972.34;5030764;28;20183;-64
2023/12/06 06:46:17;;;;;;;2.30;2.10;;;;;;;5.42;nan;-23968.06;5030394;28;20176;-64
2023/12/06 06:48:43;;;;;;;2.83;2.60;;;;;;;5.68;nan;-23975.47;5034596;28;20172;-64
2023/12/06 06:51:11;;;;;;;2.30;2.20;;;;;;;5.76;nan;-23977.75;5034390;28;20282;-63
2023/12/06 06:53:37;;;;;;;2.47;2.33;;;;;;;5.65;nan;-23974.47;5034826;28;20175;-65
2023/12/06 06:56:02;;;;;;;4.87;2.10;;;;;;;5.55;nan;-23971.75;5034445;28;20184;-64
2023/12/06 06:58:28;;;;;;;4.60;2.47;;;;;;;5.67;nan;-23975.19;5034778;28;20518;-65
2023/12/06 07:00:54;;;;;;;1.77;1.67;;;;;;;5.49;nan;-23969.91;5034586;28;20250;-64
2023/12/06 07:03:19;;;;;;;6.47;2.63;;;;;;;5.44;nan;-23968.50;5034499;28;20179;-63
2023/12/06 07:05:45;;;;;;;3.90;2.40;;;;;;;5.63;nan;-23973.91;5034718;28;20175;-64
2023/12/06 07:08:10;;;;;;;2.50;1.80;;;;;;;5.69;nan;-23975.59;5032971;28;20290;-64
2023/12/06 07:10:37;;;;;;;1.60;1.50;;;;;;;5.51;nan;-23970.63;5034360;28;20626;-64
2023/12/06 07:13:02;;;;;;;2.43;2.23;;;;;;;5.64;nan;-23974.31;5034460;28;20176;-63
2023/12/06 07:15:28;;;;;;;2.27;2.17;;;;;;;5.74;nan;-23977.03;5034225;28;20750;-66
2023/12/06 07:17:54;;;;;;;3.77;3.47;;;;;;;5.67;nan;-23975.03;5034501;28;20201;-65
2023/12/06 07:20:19;;;;;;;4.10;2.63;;;;;;;5.62;nan;-23973.63;5034337;28;20670;-65
2023/12/06 07:22:45;;;;;;;2.00;1.73;;;;;;;5.71;nan;-23976.31;5034362;28;20281;-64
2023/12/06 07:25:14;;;;;;;3.90;2.40;;;;;;;5.52;nan;-23970.78;5034175;28;20280;-64
2023/12/06 07:27:39;;;;;;;1.83;1.73;;;;;;;5.77;nan;-23978.03;5034213;28;20199;-65
2023/12/06 07:30:05;;;;;;;5.50;3.00;;;;;;;5.82;nan;-23979.31;5033591;28;20412;-64
2023/12/06 07:32:31;;;;;;;3.63;2.30;;;;;;;5.68;nan;-23975.31;5034055;28;20172;-65
2023/12/06 07:34:56;;;;;;;7.03;2.97;;;;;;;5.73;nan;-23976.75;5033913;28;20202;-64
2023/12/06 07:37:21;;;;;;;4.10;2.17;;;;;;;5.81;nan;-23978.88;5032555;28;20186;-64
2023/12/06 07:39:47;;;;;;;2.37;2.17;;;;;;;5.76;nan;-23977.59;5034255;28;20647;-64
2023/12/06 07:42:12;;;;;;;2.03;1.90;;;;;;;5.72;nan;-23976.47;5033724;28;20179;-65
2023/12/06 07:44:37;;;;;;;3.23;3.00;;;;;;;5.86;nan;-23980.28;5034055;28;20171;-65
2023/12/06 07:47:03;;;;;;;5.87;3.07;;;;;;;5.53;nan;-23971.19;5034023;28;20172;-66
2023/12/06 07:49:28;;;;;;;3.07;2.87;;;;;;;5.64;nan;-23974.19;5033335;28;20215;-65
2023/12/06 07:51:55;;;;;;;3.00;2.53;;;;;;;5.63;nan;-23974.03;5032950;28;20252;-64
2023/12/06 07:54:20;;;;;;;3.03;2.33;;;;;;;5.65;nan;-23974.59;5032497;28;20207;-64
2023/12/06 07:56:46;;;;;;;2.10;1.90;;;;;;;5.76;nan;-23977.75;5032380;28;20266;-64
2023/12/06 07:59:12;;;;;;;3.63;2.50;;;;;;;5.81;nan;-23978.88;5031552;28;20249;-64
2023/12/06 08:01:37;;;;;;;2.20;2.03;;;;;;;5.89;nan;-23981.28;5033442;28;20191;-64
2023/12/06 08:04:03;;;;;;;4.43;2.17;;;;;;;5.92;nan;-23982.00;5033620;28;20183;-64
2023/12/06 08:06:28;;;;;;;2.70;2.50;;;;;;;5.84;nan;-23979.72;5033610;28;20642;-64
2023/12/06 08:08:54;;;;;;;1.80;1.60;;;;;;;5.91;nan;-23981.72;5032643;28;20542;-65
2023/12/06 08:11:20;;;;;;;2.40;2.20;;;;;;;5.89;nan;-23981.16;5032443;28;20207;-63
2023/12/06 08:13:49;;;;;;;3.90;2.47;;;;;;;5.93;nan;-23982.44;5032408;28;20180;-66
2023/12/06 08:16:14;;;;;;;3.57;2.70;;;;;;;5.82;nan;-23979.31;5033420;28;20186;-64
2023/12/06 08:18:40;;;;;;;4.97;2.27;;;;;;;6.09;nan;-23986.97;5031882;28;20213;-64
2023/12/06 08:21:08;;;;;;;1.50;1.40;;;;;;;6.10;nan;-23987.13;5032985;28;20183;-64
2023/12/06 08:23:34;;;;;;;2.23;2.13;;;;;;;5.98;nan;-23983.84;5031775;28;20657;-65
2023/12/06 08:26:00;;;;;;;1.90;1.80;;;;;;;6.07;nan;-23986.41;5031625;28;20180;-63
2023/12/06 08:28:25;;;;;;;4.27;2.63;;;;;;;6.11;nan;-23987.53;5031735;28;20190;-63
2023/12/06 08:30:51;;;;;;;2.03;1.93;;;;;;;6.17;nan;-23989.09;5032273;28;20238;-64
2023/12/06 08:33:19;;;;;;;2.00;1.90;;;;;;;6.22;nan;-23990.66;5032937;28;20305;-64
2023/12/06 08:35:44;;;;;;;3.53;2.37;;;;;;;6.04;nan;-23985.56;5033022;28;20171;-63
2023/12/06 08:38:10;;;;;;;2.73;2.53;;;;;;;6.13;nan;-23987.97;5032806;28;20183;-64
2023/12/06 08:40:35;;;;;;;1.93;1.83;;;;;;;2.15;nan;-23876.03;5031689;28;20195;-65
2023/12/06 08:43:00;;;;;;;4.77;3.13;;;;;;;5.94;nan;-23982.72;5031970;28;20175;-64
2023/12/06 08:45:26;;;;;;;3.37;2.53;;;;;;;5.97;nan;-23983.41;5031301;28;20187;-64
2023/12/06 08:47:51;;;;;;;2.03;1.90;;;;;;;5.77;nan;-23977.88;5032742;28;20558;-63
2023/12/06 08:50:17;;;;;;;3.67;2.97;;;;;;;5.69;nan;-23975.75;5032445;28;20187;-64
2023/12/06 08:52:44;;;;;;;3.27;2.27;;;;;;;5.73;nan;-23976.75;5032447;28;20241;-65
2023/12/06 08:55:10;;;;;;;2.80;2.60;;;;;;;6.01;nan;-23984.69;5032141;28;20218;-65
2023/12/06 08:57:35;;;;;;;8.17;3.67;;;;;;;6.03;nan;-23985.13;5031807;28;20199;-64
2023/12/06 09:00:01;;;;;;;5.63;2.83;;;;;;;6.11;nan;-23987.53;5032391;28;20210;-63
2023/12/06 09:02:26;;;;;;;1.87;1.77;;;;;;;5.94;nan;-23982.56;5032598;28;20654;-65
2023/12/06 09:04:53;;;;;;;3.67;2.30;;;;;;;6.16;nan;-23988.97;5032407;28;20207;-64
2023/12/06 09:07:18;;;;;;;3.33;2.77;;;;;;;6.25;nan;-23991.22;5032346;28;20179;-65
2023/12/06 09:09:46;;;;;;;2.03;1.93;;;;;;;6.14;nan;-23988.25;5031756;28;20177;-64
2023/12/06 09:12:12;;;;;;;2.10;1.97;;;;;;;6.09;nan;-23986.84;5031507;28;20532;-64
2023/12/06 09:14:37;;;;;;;2.87;2.63;;;;;;;6.05;nan;-23985.84;5032132;28;20182;-64
2023/12/06 09:17:03;;;;;;;1.70;1.60;;;;;;;6.16;nan;-23988.97;5032458;28;20296;-65
2023/12/06 09:19:30;;;;;;;4.60;4.20;;;;;;;6.20;nan;-23990.09;5032115;28;20278;-64
2023/12/06 09:21:55;;;;;;;3.33;3.00;;;;;;;5.91;nan;-23981.88;5032367;28;20175;-63
2023/12/06 09:24:21;;;;;;;1.97;1.83;;;;;;;6.05;nan;-23985.84;5031911;28;20279;-64
2023/12/06 09:26:46;;;;;;;5.80;2.37;;;;;;;6.11;nan;-23987.41;5031846;28;20229;-65
2023/12/06 09:29:12;;;;;;;2.93;2.23;;;;;;;6.04;nan;-23985.41;5031793;28;20206;-65
2023/12/06 09:31:38;;;;;;;2.10;1.70;;;;;;;6.31;nan;-23992.94;5031625;28;20215;-65
2023/12/06 09:34:04;;;;;;;1.87;1.77;;;;;;;6.31;nan;-23993.09;5031813;28;20187;-64
2023/12/06 09:36:30;;;;;;;2.33;2.13;;;;;;;6.13;nan;-23988.13;5031773;28;20673;-65
2023/12/06 09:39:00;;;;;;;2.10;1.90;;;;;;;6.37;nan;-23994.78;5031512;28;20730;-65
2023/12/06 09:41:31;;;;;;;1.87;1.77;;;;;;;6.37;nan;-23994.78;5031270;28;20187;-64
2023/12/06 09:43:59;;;;;;;1.93;1.83;;;;;;;6.32;nan;-23993.38;5032014;28;20594;-64
2023/12/06 09:46:24;;;;;;;2.17;1.97;;;;;;;6.61;nan;-24001.59;5031558;28;20207;-64
2023/12/06 09:48:50;;;;;;;2.60;2.03;;;;;;;6.64;nan;-24002.44;5031542;28;20206;-65
2023/12/06 09:51:17;;;;;;;1.50;1.47;;;;;;;6.40;nan;-23995.50;5029787;28;20203;-64
2023/12/06 09:53:43;;;;;;;2.07;1.87;;;;;;;6.57;nan;-24000.31;5030872;28;20332;-64
2023/12/06 09:56:09;;;;;;;1.63;1.53;;;;;;;6.48;nan;-23997.75;5031071;28;20544;-65
2023/12/06 09:58:35;;;;;;;2.37;2.17;;;;;;;6.69;nan;-24003.59;5031096;28;20178;-64
2023/12/06 10:01:01;;;;;;;1.90;1.60;;;;;;;6.68;nan;-24003.44;5030907;28;20175;-65
2023/12/06 10:03:27;;;;;;;2.30;1.93;;;;;;;6.61;nan;-24001.47;5030847;28;20646;-64
2023/12/06 10:05:58;;;;;;;1.97;1.87;;;;;;;6.72;nan;-24004.56;5030848;28;20250;-63
2023/12/06 10:08:24;;;;;;;3.33;1.90;;;;;;;6.79;nan;-24006.56;5030455;28;20179;-66
2023/12/06 10:11:00;;;;;;;2.37;2.00;;;;;;;6.66;nan;-24002.88;5030816;28;20203;-64
2023/12/06 10:13:34;;;;;;;3.57;2.93;;;;;;;6.86;nan;-24008.56;5031050;28;20258;-63
2023/12/06 10:15:59;;;;;;;3.00;2.70;;;;;;;6.63;nan;-24002.16;5030838;28;20205;-64
2023/12/06 10:18:25;;;;;;;2.13;2.03;;;;;;;6.65;nan;-24002.72;5030487;28;20179;-66
2023/12/06 10:20:50;;;;;;;2.83;2.30;;;;;;;6.93;nan;-24010.53;5030117;28;20184;-66
2023/12/06 10:23:16;;;;;;;2.57;2.37;;;;;;;6.95;nan;-24010.97;5031535;28;20179;-64
2023/12/06 10:25:43;;;;;;;1.83;1.47;;;;;;;6.93;nan;-24010.41;5031203;28;20225;-63
2023/12/06 10:28:11;;;;;;;2.07;1.97;;;;;;;6.88;nan;-24009.13;5030740;28;20559;-63
2023/12/06 10:30:36;;;;;;;2.93;2.67;;;;;;;6.87;nan;-24008.69;5030510;28;20231;-64
2023/12/06 10:33:05;;;;;;;1.70;1.60;;;;;;;6.65;nan;-24002.59;5030784;28;20199;-64
2023/12/06 10:35:33;;;;;;;2.60;2.40;;;;;;;6.55;nan;-23999.75;5030899;28;20350;-64
2023/12/06 10:37:59;;;;;;;2.07;1.97;;;;;;;6.47;nan;-23997.47;5031005;28;20642;-64
2023/12/06 10:40:26;;;;;;;3.73;2.30;;;;;;;6.70;nan;-24003.88;5031063;28;20205;-64
2023/12/06 10:43:07;;;;;;;4.43;2.27;;;;;;;6.63;nan;-24002.03;5030939;28;20237;-64
2023/12/06 10:45:33;;;;;;;2.17;2.07;;;;;;;6.56;nan;-24000.19;5031527;28;20175;-63
2023/12/06 10:48:02;;;;;;;3.80;1.97;;;;;;;6.43;nan;-23996.50;5030662;28;20214;-64
2023/12/06 10:50:30;;;;;;;2.17;2.00;;;;;;;6.52;nan;-23998.91;5030687;28;20297;-64
2023/12/06 10:53:00;;;;;;;2.00;1.87;;;;;;;6.41;nan;-23995.78;5030935;28;20179;-65
2023/12/06 10:55:28;;;;;;;2.60;2.40;;;;;;;6.27;nan;-23991.81;5030987;28;20179;-64
2023/12/06 10:57:55;;;;;;;3.33;2.20;;;;;;;6.37;nan;-23994.78;5030967;28;20266;-64
2023/12/06 11:00:22;;;;;;;2.07;1.87;;;;;;;6.49;nan;-23998.06;5030863;28;20175;-63
2023/12/06 11:02:48;;;;;;;1.83;1.60;;;;;;;6.52;nan;-23998.91;5031073;28;20160;-63
2023/12/06 11:05:16;;;;;;;2.40;2.10;;;;;;;6.43;nan;-23996.50;5031113;28;20220;-62
2023/12/06 11:08:12;;;;;;;3.50;2.80;;;;;;;6.70;nan;-24004.00;5030755;28;20290;-64
2023/12/06 11:11:14;;;;;;;2.03;1.93;;;;;;;6.69;nan;-24003.59;5030714;28;20306;-64
2023/12/06 11:13:49;;;;;;;2.10;1.90;;;;;;;6.65;nan;-24002.72;5030928;28;20166;-63
2023/12/06 11:16:53;;;;;;;4.23;2.13;;;;;;;6.76;nan;-24005.72;5031036;28;20634;-64
2023/12/06 11:19:20;;;;;;;2.90;2.53;;;;;;;6.65;nan;-24002.72;5030332;28;20254;-63
2023/12/06 11:21:47;;;;;;;3.57;3.13;;;;;;;6.85;nan;-24008.13;5028905;28;20277;-66
2023/12/06 11:24:13;;;;;;;3.60;3.27;;;;;;;6.72;nan;-24004.44;5030258;28;20943;-64
2023/12/06 11:26:39;;;;;;;3.47;2.73;;;;;;;6.86;nan;-24008.56;5030057;28;20247;-63
2023/12/06 11:29:06;;;;;;;6.07;2.93;;;;;;;7.08;nan;-24014.66;5029454;28;20178;-64
2023/12/06 11:31:37;;;;;;;2.13;2.03;;;;;;;6.98;nan;-24011.94;5028515;28;20252;-65
2023/12/06 11:34:09;;;;;;;2.67;2.47;;;;;;;7.09;nan;-24015.06;5031562;28;20211;-65
2023/12/06 11:36:35;;;;;;;2.83;2.63;;;;;;;7.17;nan;-24017.06;5033952;28;20170;-65
2023/12/06 11:39:21;;;;;;;4.00;3.33;;;;;;;7.18;nan;-24017.34;5034216;28;20171;-66
2023/12/06 11:41:52;;;;;;;2.80;2.23;;;;;;;6.97;nan;-24011.66;5034074;28;20206;-64
2023/12/06 11:44:18;;;;;;;3.20;2.90;;;;;;;7.18;nan;-24017.47;5033438;28;20182;-64
2023/12/06 11:46:55;;;;;;;3.57;2.87;;;;;;;7.13;nan;-24016.06;5034110;28;20183;-65